Time;durP1;ratioP1;P1;durP2;ratioP2;P2;SDS_P1;SDS_P2;PMS_P1;PMS_P2;Temp;Humidity;BMP_temperature;BMP_pressure;BME280_temperature;BME280_humidity;BME280_pressure;Samples;Min_cycle;Max_cycle;Signal;HPM_P1;HPM_P2
2021/06/01 00:43:47;;;;;;;;;;;;;;;;;;;;;
2021/06/01 03:15:49;;;;;;;17.65;13.90;;;11.80;89.50;;;;;;6176263;22;20414;-96
2021/06/01 04:18:25;;;;;;;17.90;13.10;;;12.00;90.10;;;;;;6156374;23;20024;-95
2021/06/01 04:24:16;;;;;;;18.33;13.55;;;12.10;90.00;;;;;;6160519;22;20033;-93
2021/06/01 04:27:34;;;;;;;16.85;13.20;;;12.20;90.00;;;;;;6135766;23;20030;-96
2021/06/01 04:33:16;;;;;;;17.85;13.38;;;12.30;89.90;;;;;;6088528;23;20053;-96
2021/06/01 04:58:42;;;;;;;16.25;13.02;;;12.90;89.30;;;;;;6232662;22;20385;-92
2021/06/01 05:01:09;;;;;;;16.65;13.13;;;13.00;89.20;;;;;;6213534;22;20024;-95
2021/06/01 05:03:41;;;;;;;16.70;13.48;;;13.10;88.90;;;;;;6225612;22;20071;-96
2021/06/01 05:06:08;;;;;;;18.88;13.55;;;13.10;89.10;;;;;;6221439;22;20020;-96
2021/06/01 05:08:37;;;;;;;16.20;13.70;;;13.20;89.50;;;;;;6201533;22;20016;-96
2021/06/01 05:11:05;;;;;;;15.38;12.57;;;13.30;89.50;;;;;;6205373;22;20030;-95
2021/06/01 05:13:33;;;;;;;16.95;13.07;;;13.30;89.00;;;;;;6251024;22;20069;-96
2021/06/01 05:15:59;;;;;;;17.35;12.23;;;13.40;89.00;;;;;;6188949;22;20688;-96
2021/06/01 05:18:26;;;;;;;16.77;13.80;;;13.50;89.10;;;;;;6219469;22;20030;-93
2021/06/01 06:01:24;;;;;;;12.45;9.68;;;14.90;83.20;;;;;;6274470;22;20022;-92
2021/06/01 06:19:17;;;;;;;11.52;8.60;;;15.60;79.50;;;;;;6245910;22;20020;-96
2021/06/01 06:22:37;;;;;;;;;;;;;;;;;;;;;
2021/06/01 06:51:12;;;;;;;11.68;7.35;;;17.20;76.30;;;;;;6253944;22;20024;-96
2021/06/01 06:57:35;;;;;;;;;;;;;;;;;;;;;
2021/06/01 07:04:24;;;;;;;;;;;;;;;;;;;;;
2021/06/01 07:07:20;;;;;;;8.30;7.05;;;18.00;71.50;;;;;;5569038;23;16278982;-92
2021/06/01 07:10:18;;;;;;;11.02;7.28;;;18.30;70.30;;;;;;5881276;24;20492;-94
2021/06/01 07:13:25;;;;;;;9.18;7.43;;;18.40;69.70;;;;;;4460413;27;15077910;-95
2021/06/01 07:16:21;;;;;;;12.10;7.68;;;18.60;68.90;;;;;;4936509;28;20049;-96
2021/06/01 07:19:25;;;;;;;9.55;7.50;;;18.80;68.70;;;;;;4980348;28;20126;-93
2021/06/01 07:25:23;;;;;;;;;;;;;;;;;;;;;
2021/06/01 07:38:35;;;;;;;7.45;6.32;;;;;;;;;;4953039;27;2316690;-96
2021/06/01 07:41:36;;;;;;;9.15;7.00;;;;;;;;;;4880648;28;20056;-96
2021/06/01 07:44:11;;;;;;;;;;;;;;;;;;2614122;29;74155372;-90
2021/06/01 07:47:19;;;;;;;10.10;6.25;;;;;;;;;;5024231;27;20409;-95
2021/06/01 07:50:17;;;;;;;7.85;5.78;;;;;;;;;;4915530;28;20058;-96
2021/06/01 07:52:46;;;;;;;6.30;5.63;;;;;;;;;;4450281;28;10232616;-96
2021/06/01 07:55:28;;;;;;;7.82;5.28;;;;;;;;;;4913380;27;1596069;-96
2021/06/01 07:58:09;;;;;;;;;;;;;;;;;;;;;
2021/06/01 08:01:01;;;;;;;7.03;5.90;;;;;;;;;;4892713;28;20052;-93
2021/06/01 08:03:33;;;;;;;6.88;5.30;;;;;;;;;;4829823;29;41644;-94
2021/06/01 08:06:36;;;;;;;5.45;4.53;;;;;;;;;;5011748;27;20168;-93
2021/06/01 08:09:12;;;;;;;5.07;4.57;;;;;;;;;;4972454;28;20049;-93
2021/06/01 08:11:56;;;;;;;;;;;;;;;;;;;;;
2021/06/01 08:14:28;;;;;;;8.02;4.75;;;;;;;;;;4976654;28;20093;-96
2021/06/01 08:16:54;;;;;;;5.75;4.00;;;;;;;;;;4940196;28;20061;-95
2021/06/01 08:19:47;;;;;;;4.72;3.70;;;;;;;;;;4920909;28;20097;-95
2021/06/01 08:22:46;;;;;;;4.20;3.20;;;;;;;;;;4911841;28;20115;-93
2021/06/01 08:25:25;;;;;;;4.18;3.10;;;;;;;;;;4899001;28;20059;-93
2021/06/01 08:27:54;;;;;;;4.78;3.03;;;;;;;;;;4917391;28;20055;-93
2021/06/01 08:30:21;;;;;;;5.07;3.05;;;;;;;;;;4883370;28;20051;-93
2021/06/01 08:33:06;;;;;;;4.15;3.00;;;;;;;;;;4892530;28;20043;-94
2021/06/01 08:35:57;;;;;;;3.72;2.97;;;;;;;;;;5080847;27;20432;-94
2021/06/01 08:38:35;;;;;;;5.15;3.17;;;;;;;;;;5028270;28;20460;-95
2021/06/01 08:41:16;;;;;;;3.78;2.92;;;;;;;;;;5008185;28;20057;-94
2021/06/01 08:44:06;;;;;;;4.65;2.90;;;;;;;;;;4965651;28;20555;-94
2021/06/01 08:46:59;;;;;;;4.00;3.10;;;23.90;45.30;;;;;;5012813;28;20123;-93
2021/06/01 08:49:45;;;;;;;5.90;2.80;;;23.90;45.90;;;;;;5028178;28;20048;-96
2021/06/01 08:52:21;;;;;;;4.63;3.10;;;24.10;44.70;;;;;;5035705;28;20075;-95
2021/06/01 08:54:50;;;;;;;4.75;2.83;;;24.20;45.10;;;;;;5070458;28;20045;-96
2021/06/01 08:57:25;;;;;;;3.45;3.03;;;24.30;44.30;;;;;;4986180;28;20390;-95
2021/06/01 09:00:06;;;;;;;3.85;2.60;;;24.40;44.40;;;;;;5023156;28;20044;-90
2021/06/01 09:02:42;;;;;;;5.40;2.92;;;24.50;43.00;;;;;;5046771;28;20059;-95
2021/06/01 09:05:14;;;;;;;3.22;2.78;;;24.70;43.50;;;;;;5017375;28;20063;-96
2021/06/01 09:08:01;;;;;;;3.70;2.55;;;24.80;42.90;;;;;;4986031;28;20059;-94
2021/06/01 09:13:53;;;;;;;3.92;2.95;;;25.10;41.70;;;;;;5028218;28;20069;-94
2021/06/01 09:22:42;;;;;;;3.58;2.15;;;25.40;38.70;;;;;;4973711;28;20055;-96
2021/06/01 09:25:54;;;;;;;3.67;2.40;;;25.50;37.80;;;;;;4975299;28;20057;-94
2021/06/01 09:29:04;;;;;;;2.33;2.10;;;25.60;38.60;;;;;;5045640;27;20410;-95
2021/06/01 09:31:42;;;;;;;3.22;2.42;;;25.70;37.40;;;;;;4972850;28;20124;-92
2021/06/01 09:34:22;;;;;;;3.20;2.30;;;25.90;38.40;;;;;;4952000;28;20065;-95
2021/06/01 09:36:53;;;;;;;4.68;2.50;;;26.00;39.70;;;;;;4961186;28;20059;-93
2021/06/01 09:39:54;;;;;;;4.40;2.40;;;26.10;39.60;;;;;;4897631;28;20047;-94
2021/06/01 09:42:27;;;;;;;3.03;2.28;;;26.10;38.10;;;;;;4925093;28;20157;-94
2021/06/01 09:45:25;;;;;;;3.85;2.47;;;26.30;37.20;;;;;;4974830;28;20059;-94
2021/06/01 09:48:20;;;;;;;3.60;2.70;;;26.50;37.10;;;;;;4875965;28;20460;-94
2021/06/01 09:50:54;;;;;;;;;;;26.60;38.10;;;;;;4877914;29;20112;-91
2021/06/01 09:53:56;;;;;;;3.28;2.50;;;26.70;35.00;;;;;;4999400;27;1407598;-96
2021/06/01 09:56:23;;;;;;;3.75;2.40;;;26.80;37.40;;;;;;4969863;28;20045;-93
2021/06/01 09:59:00;;;;;;;;;;;;;;;;;;;;;
2021/06/01 10:01:32;;;;;;;4.82;2.92;;;27.10;37.80;;;;;;5021581;28;20053;-93
2021/06/01 10:04:06;;;;;;;4.50;2.55;;;27.20;37.40;;;;;;4979964;28;20056;-94
2021/06/01 10:06:36;;;;;;;4.28;2.60;;;27.20;37.10;;;;;;4994395;28;20118;-94
2021/06/01 10:28:33;;;;;;;;;;;;;;;;;;;;;
2021/06/01 10:31:13;;;;;;;4.25;2.83;;;28.00;36.20;;;;;;5863666;23;20029;-93
2021/06/01 10:33:59;;;;;;;3.92;2.47;;;27.80;35.10;;;;;;5895370;23;20033;-91
2021/06/01 10:51:36;;;;;;;3.67;2.60;;;28.70;36.00;;;;;;4977816;27;1483002;-93
2021/06/01 10:54:42;;;;;;;4.18;2.72;;;28.70;34.10;;;;;;4958171;28;20045;-94
2021/06/01 10:57:17;;;;;;;3.28;2.35;;;28.80;35.20;;;;;;4925490;28;20076;-90
2021/06/01 11:02:27;;;;;;;3.92;2.42;;;29.10;34.00;;;;;;4998951;28;20111;-94
2021/06/01 11:05:11;;;;;;;3.22;2.28;;;29.30;34.80;;;;;;5043826;28;20057;-92
2021/06/01 11:07:54;;;;;;;3.75;2.42;;;29.50;32.80;;;;;;4985497;28;20083;-92
2021/06/01 11:10:46;;;;;;;3.67;2.75;;;29.70;34.70;;;;;;4972706;28;20051;-92
2021/06/01 11:13:22;;;;;;;3.80;2.70;;;29.80;33.70;;;;;;4936465;28;20064;-92
2021/06/01 11:15:58;;;;;;;6.95;2.70;;;29.90;34.10;;;;;;4930492;28;20055;-92
2021/06/01 11:18:37;;;;;;;3.30;2.33;;;29.90;32.90;;;;;;4889604;28;20059;-91
2021/06/01 11:21:30;;;;;;;3.15;2.83;;;29.90;33.00;;;;;;4867964;29;20136;-93
2021/06/01 11:24:49;;;;;;;3.35;2.70;;;30.00;33.20;;;;;;4872271;28;20050;-95
2021/06/01 11:39:59;;;;;;;3.55;2.80;;;29.50;32.50;;;;;;4730601;29;20052;-95
2021/06/01 11:42:53;;;;;;;4.47;2.97;;;29.90;34.10;;;;;;4767114;29;20543;-96
2021/06/01 11:45:38;;;;;;;24.65;3.70;;;29.90;33.60;;;;;;4766951;29;20695;-96
2021/06/01 11:51:32;;;;;;;4.55;2.70;;;30.10;34.20;;;;;;4808949;29;20064;-96
2021/06/01 12:02:00;;;;;;;4.10;2.78;;;30.30;33.40;;;;;;4753194;29;20092;-95
2021/06/01 12:04:01;;;;;;;5.20;2.90;;;30.60;32.90;;;;;;5034486;27;20545;-92
2021/06/01 12:18:34;;;;;;;4.47;2.80;;;30.90;33.50;;;;;;4885051;28;20406;-90
2021/06/01 12:21:04;;;;;;;4.18;2.78;;;31.10;32.90;;;;;;4942487;28;20114;-92
2021/06/01 12:23:35;;;;;;;4.28;2.80;;;31.10;33.10;;;;;;4896912;28;20043;-94
2021/06/01 12:26:21;;;;;;;4.38;2.80;;;31.20;32.10;;;;;;4875713;28;20115;-94
2021/06/01 12:32:34;;;;;;;3.72;3.10;;;31.20;34.10;;;;;;4878366;28;20126;-95
2021/06/01 12:44:03;;;;;;;4.88;2.95;;;31.10;32.60;;;;;;4943318;28;20141;-92
2021/06/01 13:08:12;;;;;;;5.10;3.27;;;31.20;33.50;;;;;;4982938;28;20491;-95
2021/06/01 13:20:21;;;;;;;6.28;3.20;;;31.10;32.60;;;;;;4880377;29;20142;-90
2021/06/01 13:48:30;;;;;;;4.05;3.33;;;31.50;32.40;;;;;;4974438;28;20068;-93
2021/06/01 13:50:59;;;;;;;4.43;3.38;;;31.40;32.50;;;;;;4989267;28;20081;-94
2021/06/01 13:56:30;;;;;;;5.10;3.53;;;31.40;33.60;;;;;;5005069;28;20188;-93
2021/06/01 13:59:04;;;;;;;4.90;3.45;;;31.70;32.50;;;;;;4974140;28;20140;-93
2021/06/01 14:02:12;;;;;;;6.70;3.50;;;31.70;32.90;;;;;;4942647;28;20097;-94
2021/06/01 14:21:25;;;;;;;4.50;3.70;;;31.70;32.40;;;;;;4894820;28;20068;-94
2021/06/01 16:43:05;;;;;;;7.40;5.18;;;26.60;43.90;;;;;;6106308;23;20075;-92
2021/06/01 17:16:51;;;;;;;5.93;4.68;;;26.40;43.60;;;;;;4859100;27;3489355;-96
2021/06/01 17:20:06;;;;;;;7.13;4.93;;;26.40;44.20;;;;;;4900806;28;20122;-95
2021/06/01 17:22:55;;;;;;;6.15;4.53;;;26.50;44.00;;;;;;4872778;28;20068;-93
2021/06/01 17:36:29;;;;;;;;;;;;;;;;;;;;;
2021/06/01 17:39:41;;;;;;;6.03;4.60;;;26.40;44.50;;;;;;4896063;28;20062;-96
2021/06/01 17:42:12;;;;;;;6.53;4.50;;;26.20;45.10;;;;;;4892644;28;20562;-92
2021/06/01 17:44:44;;;;;;;6.88;4.63;;;26.30;45.00;;;;;;4918186;28;20133;-93
2021/06/01 17:47:20;;;;;;;5.65;4.70;;;26.20;44.90;;;;;;4899170;28;20053;-93
2021/06/01 17:49:54;;;;;;;6.00;4.55;;;26.10;45.40;;;;;;4923728;28;20261;-93
2021/06/01 17:52:40;;;;;;;5.85;4.70;;;26.10;45.50;;;;;;4901381;28;20139;-94
2021/06/01 17:55:20;;;;;;;;;;;;;;;;;;;;;
2021/06/01 17:57:46;;;;;;;7.70;5.68;;;26.60;44.70;;;;;;4904419;28;20104;-91
2021/06/01 18:00:13;;;;;;;7.93;5.00;;;26.70;44.60;;;;;;4897338;28;20069;-92
2021/06/01 18:02:39;;;;;;;6.25;4.88;;;26.40;44.60;;;;;;4920278;28;20046;-94
2021/06/01 18:05:09;;;;;;;8.38;5.25;;;26.60;45.10;;;;;;4928794;28;20047;-95
2021/06/01 18:08:16;;;;;;;8.60;5.70;;;26.50;45.30;;;;;;4944089;28;20498;-94
2021/06/01 18:11:24;;;;;;;6.50;5.65;;;26.40;45.50;;;;;;4968632;28;20137;-94
2021/06/01 19:51:43;;;;;;;8.93;6.53;;;21.00;56.10;;;;;;4958240;28;20047;-95
2021/06/01 19:54:22;;;;;;;9.45;6.75;;;20.80;57.00;;;;;;4923924;28;20058;-95
2021/06/01 19:56:57;;;;;;;10.93;6.90;;;20.70;57.20;;;;;;4882633;28;20051;-95
2021/06/01 19:59:25;;;;;;;8.52;6.75;;;20.40;57.40;;;;;;4915347;28;20042;-95
2021/06/01 20:02:05;;;;;;;;;;;20.30;57.70;;;;;;4880975;28;20150;-95
2021/06/01 20:04:48;;;;;;;7.68;6.05;;;20.00;57.90;;;;;;4847778;29;19931;-94
2021/06/01 20:07:19;;;;;;;8.15;6.45;;;20.00;57.90;;;;;;4896457;29;20045;-94
2021/06/01 20:09:53;;;;;;;8.93;7.03;;;19.90;58.00;;;;;;4891920;28;20042;-94
2021/06/01 20:12:20;;;;;;;8.82;6.03;;;19.90;58.20;;;;;;4884034;29;20072;-95
2021/06/01 20:14:53;;;;;;;8.23;6.43;;;19.70;58.50;;;;;;4851868;29;20052;-94
2021/06/01 20:17:32;;;;;;;9.68;6.72;;;19.60;58.60;;;;;;4840463;29;20172;-95
2021/06/01 20:20:19;;;;;;;8.90;7.18;;;19.50;59.40;;;;;;4832311;29;20160;-94
2021/06/01 20:22:53;;;;;;;9.88;7.20;;;19.30;59.90;;;;;;4855928;29;20183;-93
2021/06/01 20:25:23;;;;;;;10.05;7.57;;;19.20;60.10;;;;;;4858660;29;20061;-95
2021/06/01 20:27:55;;;;;;;9.05;7.00;;;19.10;60.50;;;;;;4851930;29;20059;-94
2021/06/01 20:30:31;;;;;;;11.50;8.35;;;18.80;61.20;;;;;;4857892;28;20074;-95
2021/06/01 20:35:41;;;;;;;10.85;7.07;;;18.70;61.50;;;;;;4911430;28;20051;-96
2021/06/01 20:38:38;;;;;;;;;;;;;;;;;;;;;
2021/06/01 20:41:57;;;;;;;7.70;6.85;;;18.40;62.30;;;;;;4805119;29;20050;-96
2021/06/01 20:44:36;;;;;;;8.60;7.40;;;18.30;62.10;;;;;;4732390;29;20095;-96
2021/06/01 20:57:56;;;;;;;9.68;7.40;;;18.20;62.50;;;;;;6228067;22;20126;-96
2021/06/01 21:22:07;;;;;;;9.25;8.27;;;17.90;63.20;;;;;;5595896;22;15135714;-95
2021/06/01 21:24:36;;;;;;;9.15;7.25;;;17.20;65.20;;;;;;6080513;23;20104;-92
2021/06/01 21:27:05;;;;;;;9.95;8.15;;;17.20;65.50;;;;;;5984931;23;20023;-96
2021/06/01 21:30:01;;;;;;;9.43;8.25;;;17.20;65.70;;;;;;5802996;23;2068307;-95
2021/06/01 21:43:41;;;;;;;;;;;;;;;;;;;;;
2021/06/01 21:46:52;;;;;;;10.18;8.40;;;16.80;66.60;;;;;;5866470;24;20032;-96
2021/06/01 21:50:02;;;;;;;10.18;8.50;;;16.70;67.80;;;;;;5864834;24;20092;-96
2021/06/01 21:53:17;;;;;;;10.55;8.48;;;16.50;69.10;;;;;;5811888;24;20478;-95
2021/06/01 21:55:50;;;;;;;9.60;8.35;;;16.50;68.40;;;;;;5870276;24;20021;-96
2021/06/01 21:58:21;;;;;;;10.75;8.70;;;16.40;68.50;;;;;;5732833;24;2376438;-95
2021/06/01 22:11:50;;;;;;;10.50;8.50;;;16.40;68.50;;;;;;4893345;27;1643947;-96
2021/06/01 22:14:39;;;;;;;10.93;9.00;;;16.20;68.80;;;;;;4845801;29;20056;-96
2021/06/01 22:21:24;;;;;;;;;;;;;;;;;;;;;
2021/06/01 22:24:06;;;;;;;10.43;8.63;;;16.10;69.20;;;;;;4827401;28;20258;-96
2021/06/01 22:34:18;;;;;;;11.18;9.00;;;16.10;69.10;;;;;;4851163;28;20585;-95
2021/06/01 22:40:09;;;;;;;11.38;9.05;;;16.00;68.80;;;;;;4846968;29;20071;-96
2021/06/01 22:42:48;;;;;;;11.30;8.98;;;15.90;69.00;;;;;;4846262;29;20063;-96
2021/06/01 22:45:17;;;;;;;13.05;9.40;;;15.80;70.20;;;;;;4828034;29;20128;-95
2021/06/01 22:48:09;;;;;;;12.10;9.65;;;15.80;69.40;;;;;;4734073;29;20451;-94
2021/06/01 22:51:57;;;;;;;13.13;9.57;;;15.70;70.10;;;;;;4781672;29;20059;-93
2021/06/01 23:14:50;;;;;;;;;;;15.30;67.40;;;;;;5971047;22;2638637;-95
2021/06/01 23:17:38;;;;;;;8.93;7.07;;;15.30;66.80;;;;;;5928494;23;19939;-96
2021/06/01 23:20:33;;;;;;;9.65;7.10;;;15.30;66.60;;;;;;5929947;23;20029;-95
2021/06/01 23:23:02;;;;;;;8.25;6.72;;;15.40;66.50;;;;;;5888154;23;20041;-92
2021/06/01 23:25:31;;;;;;;8.75;6.82;;;15.30;66.70;;;;;;5880333;24;20069;-96
2021/06/01 23:28:21;;;;;;;10.45;7.28;;;15.30;67.20;;;;;;5898146;23;20100;-94
2021/06/01 23:31:28;;;;;;;9.57;7.53;;;15.30;67.50;;;;;;5894792;23;20031;-95
2021/06/01 23:34:11;;;;;;;7.82;7.00;;;15.30;67.80;;;;;;5876177;23;20134;-96
2021/06/01 23:37:11;;;;;;;8.43;7.50;;;15.30;68.50;;;;;;5919998;23;20111;-96
2021/06/01 23:39:43;;;;;;;10.02;7.47;;;15.20;69.00;;;;;;5904934;23;20024;-95
2021/06/01 23:42:23;;;;;;;;;;;;;;;;;;;;;
